createdAt,value
2023-04-13T00:01:01.348Z,99205.02
2023-04-13T00:04:06.294Z,99200.77
2023-04-13T00:07:20.318Z,99200.44
2023-04-13T00:10:24.025Z,99218.39
2023-04-13T00:13:32.136Z,99213.03
2023-04-13T00:16:50.297Z,99214.08
2023-04-13T00:19:57.920Z,99216.06
2023-04-13T00:22:57.684Z,99211.42
2023-04-13T00:25:51.559Z,99220.12
2023-04-13T00:29:12.571Z,99222.40
2023-04-13T00:32:19.147Z,99223.66
2023-04-13T00:35:43.767Z,99221.35
2023-04-13T00:39:00.862Z,99218.84
2023-04-13T00:42:08.151Z,99218.77
2023-04-13T00:45:34.072Z,99228.33
2023-04-13T00:48:56.622Z,99230.81
2023-04-13T00:51:53.061Z,99231.73
2023-04-13T00:55:20.733Z,99230.59
2023-04-13T00:58:27.392Z,99229.62
2023-04-13T01:01:20.884Z,99223.48
2023-04-13T01:04:37.387Z,99224.97
2023-04-13T01:08:09.425Z,99225.75
2023-04-13T01:11:12.119Z,99221.53
2023-04-13T01:14:35.049Z,99227.48
2023-04-13T01:17:46.397Z,99229.42
2023-04-13T01:20:50.672Z,99229.88
2023-04-13T01:24:24.394Z,99234.16
2023-04-13T01:28:07.608Z,99240.96
2023-04-13T01:31:15.780Z,99237.70
2023-04-13T01:34:21.675Z,99234.88
2023-04-13T01:37:19.646Z,99236.32
2023-04-13T01:40:45.066Z,99238.73
2023-04-13T01:44:03.308Z,99241.85
2023-04-13T01:47:30.808Z,99241.02
2023-04-13T01:50:52.175Z,99246.85
2023-04-13T01:54:27.549Z,99249.52
2023-04-13T01:57:24.890Z,99251.45
2023-04-13T02:00:36.400Z,99247.81
2023-04-13T02:03:49.229Z,99249.20
2023-04-13T02:07:04.369Z,99247.54
2023-04-13T02:10:16.777Z,99247.18
2023-04-13T02:13:53.660Z,99253.48
2023-04-13T02:17:11.394Z,99244.08
2023-04-13T02:20:40.493Z,99246.27
2023-04-13T02:24:12.871Z,99250.72
2023-04-13T02:27:48.385Z,99252.21
2023-04-13T02:31:09.228Z,99254.55
2023-04-13T02:34:35.765Z,99255.91
2023-04-13T02:38:04.846Z,99260.34
2023-04-13T02:41:23.727Z,99257.44
2023-04-13T02:44:51.699Z,99258.79
2023-04-13T02:48:28.825Z,99255.17
2023-04-13T02:51:48.569Z,99252.33
2023-04-13T02:55:15.622Z,99246.42
2023-04-13T02:59:00.896Z,99241.34
2023-04-13T03:02:15.498Z,99241.67
2023-04-13T03:06:04.529Z,99246.55
2023-04-13T03:09:40.180Z,99252.54
2023-04-13T03:12:56.581Z,99250.73
2023-04-13T03:16:23.335Z,99247.90
2023-04-13T03:19:52.430Z,99247.92
2023-04-13T03:23:26.646Z,99253.38
2023-04-13T03:26:59.127Z,99246.75
2023-04-13T03:30:25.570Z,99250.41
2023-04-13T03:34:02.467Z,99252.02
2023-04-13T03:37:43.078Z,99251.02
2023-04-13T03:41:35.283Z,99252.00
2023-04-13T03:45:06.202Z,99262.31
2023-04-13T03:48:31.518Z,99263.99
2023-04-13T03:52:20.600Z,99265.10
2023-04-13T03:55:55.372Z,99272.48
2023-04-13T03:59:35.647Z,99278.44
2023-04-13T04:03:15.433Z,99284.04
2023-04-13T04:06:49.236Z,99286.19
2023-04-13T04:10:22.330Z,99289.33
2023-04-13T04:13:51.122Z,99295.71
2023-04-13T04:17:18.277Z,99298.59
2023-04-13T04:21:07.656Z,99304.78
2023-04-13T04:24:45.924Z,99307.27
2023-04-13T04:28:02.799Z,99301.95
2023-04-13T04:31:01.780Z,99306.23
2023-04-13T04:33:42.868Z,99297.41
2023-04-13T04:36:44.852Z,99307.51
2023-04-13T04:39:38.072Z,99305.95
2023-04-13T04:42:30.820Z,99312.27
2023-04-13T04:45:33.377Z,99312.10
2023-04-13T04:48:34.824Z,99319.65
2023-04-13T04:51:24.935Z,99329.08
2023-04-13T04:54:18.352Z,99336.55
2023-04-13T04:57:07.053Z,99345.84
2023-04-13T04:59:57.344Z,99345.77
2023-04-13T05:02:51.205Z,99344.98
2023-04-13T05:05:47.587Z,99343.22
2023-04-13T05:08:44.936Z,99347.47
2023-04-13T05:11:41.349Z,99353.03
2023-04-13T05:14:52.833Z,99361.53
2023-04-13T05:17:42.954Z,99363.08
2023-04-13T05:20:30.807Z,99362.54
2023-04-13T05:23:29.851Z,99359.59
2023-04-13T05:26:20.186Z,99359.08
2023-04-13T05:29:16.472Z,99356.13
2023-04-13T05:32:12.289Z,99352.77
2023-04-13T05:35:07.313Z,99354.14
2023-04-13T05:38:21.135Z,99350.88
2023-04-13T05:41:00.883Z,99349.58
2023-04-13T05:43:52.193Z,99352.04
2023-04-13T05:46:36.953Z,99349.07
2023-04-13T05:49:23.151Z,99349.23
2023-04-13T05:52:07.725Z,99347.52
2023-04-13T05:55:08.231Z,99350.36
2023-04-13T05:57:53.301Z,99351.80
2023-04-13T06:00:39.086Z,99358.39
2023-04-13T06:03:29.084Z,99367.02
2023-04-13T06:06:18.950Z,99369.18
2023-04-13T06:09:09.037Z,99374.70
2023-04-13T06:11:46.561Z,99374.75
2023-04-13T06:14:37.328Z,99378.43
2023-04-13T06:17:14.209Z,99389.19
2023-04-13T06:20:00.316Z,99398.33
2023-04-13T06:22:49.090Z,99408.05
2023-04-13T06:25:36.220Z,99409.11
2023-04-13T06:28:16.934Z,99405.99
2023-04-13T06:31:14.889Z,99413.94
2023-04-13T06:34:16.261Z,99419.41
2023-04-13T06:37:00.596Z,99417.88
2023-04-13T06:39:37.998Z,99419.67
2023-04-13T06:42:27.384Z,99426.90
2023-04-13T06:45:34.246Z,99426.10
2023-04-13T06:48:19.924Z,99425.25
2023-04-13T06:51:16.669Z,99429.42
2023-04-13T06:53:53.650Z,99431.23
2023-04-13T06:56:30.453Z,99436.90
2023-04-13T06:59:12.929Z,99438.41
2023-04-13T07:01:47.283Z,99443.36
2023-04-13T07:04:21.089Z,99442.80
2023-04-13T07:07:02.637Z,99442.52
2023-04-13T07:09:56.696Z,99442.18
2023-04-13T07:12:33.493Z,99446.58
2023-04-13T07:15:11.939Z,99454.45
2023-04-13T07:18:02.432Z,99460.21
2023-04-13T07:20:43.779Z,99469.34
2023-04-13T07:23:26.089Z,99468.11
2023-04-13T07:26:13.309Z,99471.43
2023-04-13T07:28:47.794Z,99471.83
2023-04-13T07:31:25.850Z,99472.77
2023-04-13T07:34:11.310Z,99473.83
2023-04-13T07:36:56.904Z,99472.30
2023-04-13T07:39:29.255Z,99475.89
2023-04-13T07:42:05.936Z,99474.35
2023-04-13T07:44:52.834Z,99475.28
2023-04-13T07:47:29.122Z,99471.05
2023-04-13T07:50:07.825Z,99469.58
2023-04-13T07:52:42.346Z,99472.36
2023-04-13T07:55:19.931Z,99478.09
2023-04-13T07:57:56.090Z,99483.52
2023-04-13T08:00:32.766Z,99484.83
2023-04-13T08:03:07.786Z,99488.20
2023-04-13T08:05:41.093Z,99492.33
2023-04-13T08:08:13.355Z,99503.42
2023-04-13T08:10:46.443Z,99508.59
2023-04-13T08:13:18.768Z,99504.48
2023-04-13T08:15:47.814Z,99506.46
2023-04-13T08:18:22.532Z,99501.42
2023-04-13T08:20:56.648Z,99503.65
2023-04-13T08:23:29.222Z,99504.02
2023-04-13T08:26:02.854Z,99508.70
2023-04-13T08:28:37.041Z,99509.77
2023-04-13T08:31:16.982Z,99510.29
2023-04-13T08:33:55.925Z,99503.31
2023-04-13T08:36:28.789Z,99502.27
2023-04-13T08:39:10.367Z,99501.13
2023-04-13T08:41:45.312Z,99507.45
2023-04-13T08:44:15.109Z,99505.08
2023-04-13T08:46:52.810Z,99506.10
2023-04-13T08:49:36.036Z,99511.05
2023-04-13T08:52:41.279Z,99507.01
2023-04-13T08:55:20.722Z,99508.92
2023-04-13T08:57:55.749Z,99506.25
2023-04-13T09:00:33.956Z,99499.52
2023-04-13T09:03:19.737Z,99493.94
2023-04-13T09:06:05.451Z,99491.86
2023-04-13T09:08:47.315Z,99495.25
2023-04-13T09:11:22.345Z,99498.23
2023-04-13T09:13:57.492Z,99497.70
2023-04-13T09:16:33.250Z,99496.54
2023-04-13T09:19:20.346Z,99495.73
2023-04-13T09:21:51.695Z,99499.02
2023-04-13T09:24:39.936Z,99499.55
2023-04-13T09:27:21.630Z,99503.98
2023-04-13T09:29:57.345Z,99512.40
2023-04-13T09:32:29.008Z,99512.51
2023-04-13T09:35:10.106Z,99508.05
2023-04-13T09:37:46.169Z,99508.13
2023-04-13T09:40:20.573Z,99506.90
2023-04-13T09:43:09.956Z,99509.81
2023-04-13T09:45:45.498Z,99509.56
2023-04-13T09:48:25.861Z,99505.22
2023-04-13T09:51:06.419Z,99508.55
2023-04-13T09:53:49.761Z,99513.18
2023-04-13T09:56:24.677Z,99522.13
2023-04-13T09:59:05.550Z,99525.60
2023-04-13T10:01:41.094Z,99537.16
2023-04-13T10:04:24.344Z,99536.55
2023-04-13T10:07:13.509Z,99544.98
2023-04-13T10:09:56.644Z,99554.53
2023-04-13T10:12:40.235Z,99559.33
2023-04-13T10:15:58.680Z,99559.05
2023-04-13T10:18:42.428Z,99554.74
2023-04-13T10:21:21.144Z,99559.13
2023-04-13T10:23:57.862Z,99563.83
2023-04-13T10:26:39.328Z,99557.52
2023-04-13T10:29:14.999Z,99562.38
2023-04-13T10:32:06.484Z,99565.61
2023-04-13T10:34:43.856Z,99572.42
2023-04-13T10:37:32.810Z,99575.93
2023-04-13T10:40:10.715Z,99579.58
2023-04-13T10:42:53.407Z,99580.79
2023-04-13T10:45:38.007Z,99589.75
2023-04-13T10:48:22.437Z,99591.77
2023-04-13T10:51:05.657Z,99589.74
2023-04-13T10:53:45.792Z,99587.65
2023-04-13T10:56:35.004Z,99595.49
2023-04-13T10:59:20.301Z,99597.09
2023-04-13T11:02:01.087Z,99593.13
2023-04-13T11:04:49.564Z,99599.07
2023-04-13T11:07:46.361Z,99603.48
2023-04-13T11:10:32.308Z,99601.52
2023-04-13T11:13:10.302Z,99602.48
2023-04-13T11:15:55.062Z,99601.14
2023-04-13T11:18:44.431Z,99603.39
2023-04-13T11:21:21.132Z,99610.45
2023-04-13T11:24:23.485Z,99615.09
2023-04-13T11:27:16.433Z,99619.33
2023-04-13T11:30:23.532Z,99613.41
2023-04-13T11:33:04.025Z,99612.70
2023-04-13T11:35:50.337Z,99612.16
2023-04-13T11:38:32.665Z,99613.89
2023-04-13T11:41:17.133Z,99617.02
2023-04-13T11:44:10.490Z,99628.96
2023-04-13T11:46:57.814Z,99634.98
2023-04-13T11:49:48.052Z,99635.84
2023-04-13T11:52:33.972Z,99636.31
2023-04-13T11:55:25.672Z,99639.61
2023-04-13T11:58:15.804Z,99638.05
2023-04-13T12:01:19.369Z,99635.77
2023-04-13T12:04:14.647Z,99629.92
2023-04-13T12:07:20.792Z,99623.45
2023-04-13T12:10:22.523Z,99627.89
2023-04-13T12:13:35.819Z,99632.41
2023-04-13T12:19:30.289Z,99642.95
2023-04-13T12:22:23.896Z,99643.23
2023-04-13T12:25:35.103Z,99642.91
2023-04-13T12:28:15.483Z,99639.64
2023-04-13T12:30:55.114Z,99639.58
2023-04-13T12:33:37.865Z,99635.06
2023-04-13T12:36:31.415Z,99641.05
2023-04-13T12:39:34.118Z,99637.80
2023-04-13T12:42:17.817Z,99636.68
2023-04-13T12:45:21.315Z,99627.83
2023-04-13T12:48:10.430Z,99627.73
2023-04-13T12:50:59.332Z,99627.98
2023-04-13T12:53:52.601Z,99628.45
2023-04-13T12:56:46.888Z,99632.73
2023-04-13T12:59:35.882Z,99635.89
2023-04-13T13:02:24.170Z,99637.52
2023-04-13T13:05:16.839Z,99637.29
2023-04-13T13:08:07.227Z,99640.11
2023-04-13T13:10:58.741Z,99638.46
2023-04-13T13:13:48.529Z,99644.80
2023-04-13T13:16:44.790Z,99647.08
2023-04-13T13:19:27.861Z,99642.20
2023-04-13T13:22:30.757Z,99644.66
2023-04-13T13:25:35.530Z,99642.25
2023-04-13T13:28:22.806Z,99642.35
2023-04-13T13:31:19.934Z,99645.80
2023-04-13T13:34:01.751Z,99644.52
2023-04-13T13:36:51.338Z,99643.69
2023-04-13T13:39:47.250Z,99644.36
2023-04-13T13:42:50.095Z,99643.86
2023-04-13T13:45:34.379Z,99643.28
2023-04-13T13:48:22.214Z,99648.55
2023-04-13T13:51:25.818Z,99647.30
2023-04-13T13:54:22.914Z,99647.60
2023-04-13T13:57:12.132Z,99652.63
2023-04-13T14:00:16.253Z,99655.55
2023-04-13T14:03:14.339Z,99656.57
2023-04-13T14:06:36.115Z,99659.33
2023-04-13T14:09:53.624Z,99661.70
2023-04-13T14:13:32.199Z,99663.48
2023-04-13T14:17:11.272Z,99665.88
2023-04-13T14:20:59.477Z,99669.69
2023-04-13T14:24:48.611Z,99670.34
2023-04-13T14:28:31.929Z,99676.45
2023-04-13T14:32:09.594Z,99679.11
2023-04-13T14:35:58.664Z,99677.92
2023-04-13T14:39:47.731Z,99676.02
2023-04-13T14:43:36.821Z,99677.95
2023-04-13T14:47:17.748Z,99680.37
2023-04-13T14:51:03.865Z,99679.98
2023-04-13T14:54:45.163Z,99684.88
2023-04-13T14:58:25.743Z,99685.94
2023-04-13T15:02:07.757Z,99684.41
2023-04-13T15:05:33.383Z,99680.93
2023-04-13T15:09:22.534Z,99681.65
2023-04-13T15:12:50.689Z,99685.95
2023-04-13T15:16:16.419Z,99691.83
2023-04-13T15:19:46.528Z,99693.97
2023-04-13T15:23:12.355Z,99692.98
2023-04-13T15:26:56.347Z,99695.46
2023-04-13T15:30:04.475Z,99695.86
2023-04-13T15:33:53.581Z,99699.52
2023-04-13T15:37:24.558Z,99699.04
2023-04-13T15:41:03.776Z,99703.02
2023-04-13T15:44:35.630Z,99706.45
2023-04-13T15:48:09.544Z,99705.92
2023-04-13T15:52:01.576Z,99713.89
2023-04-13T15:55:24.841Z,99716.60
2023-04-13T15:59:14.006Z,99722.57
2023-04-13T16:03:03.473Z,99722.30
2023-04-13T16:07:05.068Z,99720.30
2023-04-13T16:10:48.057Z,99725.65
2023-04-13T16:14:30.508Z,99734.90
2023-04-13T16:18:12.089Z,99733.64
2023-04-13T16:22:01.270Z,99737.06
2023-04-13T16:25:50.421Z,99740.33
2023-04-13T16:29:33.543Z,99742.38
2023-04-13T16:33:15.652Z,99746.67
2023-04-13T16:37:04.896Z,99745.95
2023-04-13T16:40:52.965Z,99754.07
2023-04-13T16:44:20.843Z,99754.96
2023-04-13T16:47:53.849Z,99758.95
2023-04-13T16:51:43.008Z,99760.55
2023-04-13T16:55:31.419Z,99757.39
2023-04-13T16:59:20.827Z,99760.62
2023-04-13T17:03:06.992Z,99760.61
2023-04-13T17:06:42.370Z,99760.79
2023-04-13T17:10:10.848Z,99760.55
2023-04-13T17:13:53.037Z,99763.56
2023-04-13T17:17:30.792Z,99767.05
2023-04-13T17:21:11.028Z,99772.17
2023-04-13T17:25:00.173Z,99771.34
2023-04-13T17:28:39.354Z,99771.58
2023-04-13T17:32:28.205Z,99773.54
2023-04-13T17:36:16.289Z,99776.29
2023-04-13T17:40:08.496Z,99779.00
2023-04-13T17:43:46.618Z,99783.61
2023-04-13T17:47:22.268Z,99790.03
2023-04-13T17:50:50.102Z,99792.48
2023-04-13T17:54:21.076Z,99801.26
2023-04-13T17:57:41.770Z,99802.35
2023-04-13T18:01:15.523Z,99805.73
2023-04-13T18:05:03.934Z,99808.38
2023-04-13T18:08:33.606Z,99817.51
2023-04-13T18:12:22.681Z,99825.77
2023-04-13T18:15:56.696Z,99828.61
2023-04-13T18:19:37.832Z,99833.87
2023-04-13T18:23:26.952Z,99834.23
2023-04-13T18:27:16.037Z,99833.23
2023-04-13T18:30:58.490Z,99840.23
2023-04-13T18:34:36.267Z,99846.56
2023-04-13T18:38:12.849Z,99849.58
2023-04-13T18:41:39.046Z,99855.58
2023-04-13T18:45:29.583Z,99861.61
2023-04-13T18:49:11.787Z,99865.31
2023-04-13T18:52:57.390Z,99864.58
2023-04-13T18:56:31.907Z,99866.25
2023-04-13T19:00:21.000Z,99864.25
2023-04-13T19:04:10.216Z,99868.48
2023-04-13T19:07:52.521Z,99869.00
2023-04-13T19:11:28.424Z,99870.33
2023-04-13T19:15:10.584Z,99868.61
2023-04-13T19:18:59.374Z,99872.14
2023-04-13T19:22:32.267Z,99871.48
2023-04-13T19:26:21.271Z,99870.00
2023-04-13T19:29:49.731Z,99869.08
2023-04-13T19:33:38.886Z,99865.80
2023-04-13T19:37:14.742Z,99867.52
2023-04-13T19:40:48.966Z,99865.63
2023-04-13T19:44:31.169Z,99864.42
2023-04-13T19:48:17.170Z,99863.27
2023-04-13T19:52:06.281Z,99859.73
2023-04-13T19:55:37.919Z,99865.57
2023-04-13T19:59:27.135Z,99865.02
2023-04-13T20:03:03.190Z,99867.50
2023-04-13T20:06:52.711Z,99865.02
2023-04-13T20:10:42.082Z,99869.51
2023-04-13T20:14:30.332Z,99866.70
2023-04-13T20:18:19.626Z,99863.30
2023-04-13T20:22:08.783Z,99863.61
2023-04-13T20:25:57.896Z,99859.48
2023-04-13T20:29:46.984Z,99860.02
2023-04-13T20:33:36.056Z,99863.98
2023-04-13T20:37:25.279Z,99862.36
2023-04-13T20:41:14.357Z,99861.58
2023-04-13T20:45:03.484Z,99862.19
2023-04-13T20:48:52.405Z,99857.02
2023-04-13T20:52:41.569Z,99857.28
2023-04-13T20:56:30.681Z,99856.69
2023-04-13T21:00:18.130Z,99855.33
2023-04-13T21:04:00.240Z,99854.61
2023-04-13T21:07:53.069Z,99850.84
2023-04-13T21:11:41.677Z,99852.35
2023-04-13T21:15:30.939Z,99857.37
2023-04-13T21:19:13.002Z,99855.04
2023-04-13T21:23:00.867Z,99846.79
2023-04-13T21:26:50.127Z,99841.15
2023-04-13T21:30:24.859Z,99836.41
2023-04-13T21:34:14.234Z,99832.21
2023-04-13T21:37:54.290Z,99823.36
2023-04-13T21:41:37.521Z,99814.64
2023-04-13T21:45:24.255Z,99808.13
2023-04-13T21:49:06.416Z,99809.49
2023-04-13T21:52:39.719Z,99810.55
2023-04-13T21:56:28.537Z,99802.92
2023-04-13T22:00:17.597Z,99795.45
2023-04-13T22:03:46.541Z,99799.27
2023-04-13T22:07:42.283Z,99795.03
2023-04-13T22:11:15.703Z,99782.91
2023-04-13T22:14:57.360Z,99782.94
2023-04-13T22:18:45.441Z,99775.56
2023-04-13T22:22:22.321Z,99779.55
2023-04-13T22:26:11.418Z,99778.05
2023-04-13T22:29:40.346Z,99777.83
2023-04-13T22:33:19.926Z,99782.58
2023-04-13T22:37:08.567Z,99787.63
2023-04-13T22:40:42.288Z,99782.05
2023-04-13T22:44:25.448Z,99782.70
2023-04-13T22:48:04.835Z,99783.14
2023-04-13T22:51:54.132Z,99783.54
2023-04-13T22:55:36.303Z,99783.52
2023-04-13T22:59:25.216Z,99780.16
2023-04-13T23:03:06.910Z,99780.36
2023-04-13T23:06:59.038Z,99776.84
2023-04-13T23:10:32.614Z,99771.21
2023-04-13T23:14:06.582Z,99770.55
2023-04-13T23:17:40.518Z,99767.94
2023-04-13T23:21:29.759Z,99762.08
2023-04-13T23:25:01.407Z,99761.98
2023-04-13T23:28:49.475Z,99759.45
2023-04-13T23:32:24.395Z,99758.02
2023-04-13T23:36:07.922Z,99765.34
2023-04-13T23:39:57.046Z,99755.16
2023-04-13T23:43:37.700Z,99737.67
2023-04-13T23:47:19.583Z,99728.73
2023-04-13T23:51:08.837Z,99737.47
2023-04-13T23:54:44.690Z,99737.17
2023-04-13T23:58:36.642Z,99736.28
